createdAt,value
2022-07-30T00:01:34.406Z,100.00
2022-07-30T00:04:03.007Z,100.00
2022-07-30T00:06:29.635Z,100.00
2022-07-30T00:08:56.702Z,100.00
2022-07-30T00:11:27.322Z,100.00
2022-07-30T00:13:54.155Z,100.00
2022-07-30T00:16:20.774Z,100.00
2022-07-30T00:18:47.445Z,100.00
2022-07-30T00:21:31.489Z,100.00
2022-07-30T00:24:02.522Z,100.00
2022-07-30T00:26:29.604Z,100.00
2022-07-30T00:28:56.214Z,100.00
2022-07-30T00:31:23.302Z,100.00
2022-07-30T00:33:50.010Z,100.00
2022-07-30T00:36:16.622Z,100.00
2022-07-30T00:38:43.209Z,100.00
2022-07-30T00:41:09.994Z,100.00
2022-07-30T00:43:36.502Z,100.00
2022-07-30T00:46:04.604Z,100.00
2022-07-30T00:48:31.148Z,100.00
2022-07-30T00:50:57.703Z,100.00
2022-07-30T00:53:24.496Z,100.00
2022-07-30T00:56:01.476Z,100.00
2022-07-30T00:58:28.052Z,100.00
2022-07-30T01:00:54.677Z,100.00
2022-07-30T01:03:21.221Z,100.00
2022-07-30T01:05:47.806Z,100.00
2022-07-30T01:08:14.365Z,100.00
2022-07-30T01:10:41.144Z,100.00
2022-07-30T01:13:08.358Z,100.00
2022-07-30T01:15:35.620Z,100.00
2022-07-30T01:18:05.571Z,100.00
2022-07-30T01:20:44.042Z,100.00
2022-07-30T01:23:31.939Z,100.00
2022-07-30T01:26:07.603Z,100.00
2022-07-30T01:28:37.663Z,100.00
2022-07-30T01:31:05.865Z,100.00
2022-07-30T01:33:37.431Z,100.00
2022-07-30T01:36:05.913Z,100.00
2022-07-30T01:38:35.657Z,100.00
2022-07-30T01:41:03.853Z,100.00
2022-07-30T01:43:31.615Z,100.00
2022-07-30T01:46:00.756Z,100.00
2022-07-30T01:48:28.964Z,100.00
2022-07-30T01:50:58.294Z,100.00
2022-07-30T01:53:29.930Z,100.00
2022-07-30T01:55:58.702Z,100.00
2022-07-30T01:58:29.772Z,100.00
2022-07-30T02:00:58.835Z,100.00
2022-07-30T02:03:27.386Z,100.00
2022-07-30T02:05:58.516Z,100.00
2022-07-30T02:08:34.969Z,100.00
2022-07-30T02:11:39.773Z,100.00
2022-07-30T02:14:17.897Z,100.00
2022-07-30T02:16:49.352Z,100.00
2022-07-30T02:19:18.255Z,100.00
2022-07-30T02:21:50.377Z,100.00
2022-07-30T02:24:31.321Z,100.00
2022-07-30T02:27:04.998Z,100.00
2022-07-30T02:29:34.621Z,100.00
2022-07-30T02:32:06.082Z,100.00
2022-07-30T02:34:36.539Z,100.00
2022-07-30T02:37:05.885Z,100.00
2022-07-30T02:39:34.635Z,100.00
2022-07-30T02:42:02.732Z,100.00
2022-07-30T02:44:30.496Z,100.00
2022-07-30T02:46:58.621Z,100.00
2022-07-30T02:49:28.203Z,100.00
2022-07-30T02:51:55.750Z,100.00
2022-07-30T02:54:24.403Z,100.00
2022-07-30T02:56:52.185Z,100.00
2022-07-30T02:59:20.988Z,100.00
2022-07-30T03:01:49.564Z,100.00
2022-07-30T03:04:20.621Z,100.00
2022-07-30T03:06:49.501Z,100.00
2022-07-30T03:09:18.087Z,100.00
2022-07-30T03:11:45.724Z,100.00
2022-07-30T03:14:12.494Z,100.00
2022-07-30T03:16:43.063Z,100.00
2022-07-30T03:19:11.313Z,100.00
2022-07-30T03:21:42.164Z,100.00
2022-07-30T03:24:11.971Z,100.00
2022-07-30T03:26:40.148Z,100.00
2022-07-30T03:29:08.730Z,100.00
2022-07-30T03:31:38.738Z,100.00
2022-07-30T03:34:06.778Z,100.00
2022-07-30T03:36:35.782Z,100.00
2022-07-30T03:39:05.180Z,100.00
2022-07-30T03:41:32.684Z,100.00
2022-07-30T03:44:00.420Z,100.00
2022-07-30T03:46:28.119Z,100.00
2022-07-30T03:48:55.223Z,100.00
2022-07-30T03:51:22.708Z,100.00
2022-07-30T03:53:51.585Z,100.00
2022-07-30T03:56:18.564Z,100.00
2022-07-30T03:58:45.470Z,100.00
2022-07-30T04:01:12.455Z,100.00
2022-07-30T04:03:39.279Z,100.00
2022-07-30T04:06:06.051Z,100.00
2022-07-30T04:08:32.594Z,100.00
2022-07-30T04:10:59.093Z,100.00
2022-07-30T04:13:25.814Z,100.00
2022-07-30T04:16:39.112Z,100.00
2022-07-30T04:19:12.151Z,100.00
2022-07-30T04:21:41.468Z,100.00
2022-07-30T04:24:10.743Z,100.00
2022-07-30T04:26:38.397Z,100.00
2022-07-30T04:29:09.048Z,100.00
2022-07-30T04:31:41.316Z,100.00
2022-07-30T04:34:08.951Z,100.00
2022-07-30T04:36:38.524Z,100.00
2022-07-30T04:39:05.033Z,100.00
2022-07-30T04:41:49.430Z,100.00
2022-07-30T04:44:17.992Z,100.00
2022-07-30T04:46:44.828Z,100.00
2022-07-30T04:49:14.048Z,100.00
2022-07-30T04:51:41.053Z,100.00
2022-07-30T04:54:15.408Z,100.00
2022-07-30T04:56:53.337Z,100.00
2022-07-30T04:59:23.668Z,100.00
2022-07-30T05:01:52.335Z,100.00
2022-07-30T05:04:19.474Z,100.00
2022-07-30T05:06:46.830Z,100.00
2022-07-30T05:09:16.054Z,100.00
2022-07-30T05:11:42.989Z,100.00
2022-07-30T05:14:09.484Z,100.00
2022-07-30T05:16:36.361Z,100.00
2022-07-30T05:19:07.537Z,100.00
2022-07-30T05:21:35.035Z,100.00
2022-07-30T05:24:01.652Z,100.00
2022-07-30T05:26:28.437Z,100.00
2022-07-30T05:28:56.795Z,100.00
2022-07-30T05:31:25.148Z,100.00
2022-07-30T05:33:52.131Z,100.00
2022-07-30T05:36:19.948Z,100.00
2022-07-30T05:38:46.924Z,100.00
2022-07-30T05:41:30.677Z,100.00
2022-07-30T05:43:59.075Z,96.08
2022-07-30T05:46:25.883Z,97.08
2022-07-30T05:48:52.742Z,95.82
2022-07-30T05:51:20.813Z,87.57
2022-07-30T05:53:47.671Z,82.67
2022-07-30T05:56:15.885Z,75.05
2022-07-30T05:58:42.448Z,74.80
2022-07-30T06:01:09.246Z,77.21
2022-07-30T06:03:35.847Z,83.87
2022-07-30T06:06:05.541Z,85.75
2022-07-30T06:08:32.071Z,91.09
2022-07-30T06:10:58.741Z,92.59
2022-07-30T06:13:25.390Z,97.49
2022-07-30T06:15:52.459Z,96.95
2022-07-30T06:18:19.091Z,99.03
2022-07-30T06:20:46.506Z,93.11
2022-07-30T06:23:13.489Z,95.42
2022-07-30T06:25:39.997Z,100.00
2022-07-30T06:28:27.791Z,98.10
2022-07-30T06:30:53.773Z,100.00
2022-07-30T06:33:20.524Z,100.00
2022-07-30T06:35:47.526Z,100.00
2022-07-30T06:38:17.233Z,100.00
2022-07-30T06:40:43.770Z,100.00
2022-07-30T06:43:10.274Z,98.50
2022-07-30T06:45:40.037Z,95.92
2022-07-30T06:48:06.524Z,92.18
2022-07-30T06:50:33.208Z,93.33
2022-07-30T06:52:59.715Z,95.20
2022-07-30T06:55:26.255Z,88.58
2022-07-30T06:57:53.262Z,83.70
2022-07-30T07:00:20.651Z,83.33
2022-07-30T07:02:47.232Z,81.68
2022-07-30T07:05:14.441Z,82.13
2022-07-30T07:07:43.219Z,90.04
2022-07-30T07:10:13.199Z,71.05
2022-07-30T07:12:39.764Z,60.64
2022-07-30T07:15:09.870Z,63.96
2022-07-30T07:17:36.533Z,73.59
2022-07-30T07:20:06.846Z,71.19
2022-07-30T07:22:35.506Z,65.43
2022-07-30T07:25:03.799Z,58.60
2022-07-30T07:27:30.390Z,52.93
2022-07-30T07:30:05.445Z,50.93
2022-07-30T07:32:34.165Z,49.18
2022-07-30T07:35:01.129Z,47.19
2022-07-30T07:37:28.518Z,48.23
2022-07-30T07:39:56.891Z,45.71
2022-07-30T07:42:23.908Z,46.86
2022-07-30T07:44:50.494Z,42.39
2022-07-30T07:47:18.203Z,41.58
2022-07-30T07:49:44.703Z,39.98
2022-07-30T07:52:12.762Z,41.53
2022-07-30T07:54:39.879Z,36.97
2022-07-30T07:57:10.272Z,40.65
2022-07-30T07:59:40.732Z,46.17
2022-07-30T08:02:08.579Z,42.15
2022-07-30T08:04:35.985Z,44.06
2022-07-30T08:07:03.305Z,46.67
2022-07-30T08:09:44.098Z,43.76
2022-07-30T08:12:12.581Z,47.19
2022-07-30T08:14:41.930Z,48.48
2022-07-30T08:17:09.283Z,48.29
2022-07-30T08:19:36.258Z,46.60
2022-07-30T08:22:02.797Z,44.05
2022-07-30T08:24:30.113Z,40.26
2022-07-30T08:26:57.016Z,38.18
2022-07-30T08:29:23.851Z,40.35
2022-07-30T08:31:50.384Z,43.77
2022-07-30T08:34:18.321Z,44.69
2022-07-30T08:36:46.139Z,47.56
2022-07-30T08:39:12.769Z,43.16
2022-07-30T08:41:42.098Z,39.40
2022-07-30T08:44:12.761Z,39.31
2022-07-30T08:46:47.542Z,38.48
2022-07-30T08:49:14.929Z,35.94
2022-07-30T08:51:43.205Z,36.77
2022-07-30T08:54:10.514Z,38.08
2022-07-30T08:56:37.361Z,39.79
2022-07-30T08:59:05.521Z,39.38
2022-07-30T09:01:32.143Z,40.29
2022-07-30T09:03:58.935Z,38.21
2022-07-30T09:06:25.625Z,35.72
2022-07-30T09:08:52.179Z,32.16
2022-07-30T09:11:18.904Z,39.01
2022-07-30T09:13:45.660Z,43.43
2022-07-30T09:16:23.743Z,40.77
2022-07-30T09:18:51.424Z,38.35
2022-07-30T09:21:24.566Z,40.88
2022-07-30T09:24:04.665Z,43.48
2022-07-30T09:26:35.578Z,41.73
2022-07-30T09:29:23.165Z,41.13
2022-07-30T09:31:56.893Z,40.00
2022-07-30T09:34:43.646Z,41.23
2022-07-30T09:37:10.547Z,44.62
2022-07-30T09:39:43.268Z,47.54
2022-07-30T09:42:28.141Z,47.77
2022-07-30T09:45:07.976Z,49.32
2022-07-30T09:47:39.771Z,43.80
2022-07-30T09:50:10.453Z,41.81
2022-07-30T09:52:44.342Z,37.93
2022-07-30T09:55:30.351Z,35.23
2022-07-30T09:58:00.068Z,35.42
2022-07-30T10:00:30.661Z,39.89
2022-07-30T10:02:57.681Z,41.30
2022-07-30T10:05:24.971Z,44.65
2022-07-30T10:08:09.137Z,43.40
2022-07-30T10:10:47.279Z,42.27
2022-07-30T10:13:20.903Z,43.10
2022-07-30T10:15:50.063Z,42.79
2022-07-30T10:18:18.158Z,44.58
2022-07-30T10:20:45.637Z,45.02
2022-07-30T10:23:15.806Z,47.41
2022-07-30T10:25:49.454Z,51.12
2022-07-30T10:28:24.130Z,45.72
2022-07-30T10:30:51.630Z,40.55
2022-07-30T10:33:36.461Z,39.79
2022-07-30T10:36:05.820Z,41.58
2022-07-30T10:38:39.180Z,42.18
2022-07-30T10:41:42.843Z,36.18
2022-07-30T10:44:47.734Z,36.97
2022-07-30T10:47:18.580Z,34.35
2022-07-30T10:50:04.906Z,34.32
2022-07-30T10:52:55.866Z,37.42
2022-07-30T10:55:37.128Z,37.65
2022-07-30T10:58:09.236Z,35.08
2022-07-30T11:00:56.942Z,33.01
2022-07-30T11:03:41.545Z,31.43
2022-07-30T11:06:14.890Z,33.63
2022-07-30T11:08:48.021Z,30.52
2022-07-30T11:11:21.009Z,31.42
2022-07-30T11:14:07.678Z,30.41
2022-07-30T11:16:37.257Z,31.48
2022-07-30T11:19:53.181Z,30.15
2022-07-30T11:22:38.901Z,32.78
2022-07-30T11:25:27.453Z,34.54
2022-07-30T11:28:42.185Z,38.22
2022-07-30T11:31:57.958Z,40.72
2022-07-30T11:34:35.095Z,49.60
2022-07-30T11:37:18.517Z,55.54
2022-07-30T11:39:55.190Z,61.35
2022-07-30T11:42:29.405Z,67.30
2022-07-30T11:45:23.198Z,66.49
2022-07-30T11:47:53.289Z,63.48
2022-07-30T11:50:25.867Z,66.82
2022-07-30T11:53:03.934Z,64.66
2022-07-30T11:55:34.903Z,70.66
2022-07-30T11:58:04.900Z,75.22
2022-07-30T12:00:39.744Z,78.15
2022-07-30T12:03:14.701Z,69.23
2022-07-30T12:05:42.110Z,66.54
2022-07-30T12:08:31.610Z,67.92
2022-07-30T12:11:00.707Z,65.27
2022-07-30T12:13:44.810Z,61.09
2022-07-30T12:16:16.583Z,56.16
2022-07-30T12:18:44.138Z,48.98
2022-07-30T12:21:12.733Z,49.70
2022-07-30T12:23:41.931Z,49.38
2022-07-30T12:26:08.831Z,51.83
2022-07-30T12:28:36.474Z,52.04
2022-07-30T12:31:04.388Z,54.02
2022-07-30T12:33:31.753Z,48.09
2022-07-30T12:36:00.522Z,50.19
2022-07-30T12:38:28.501Z,44.69
2022-07-30T12:40:56.813Z,40.00
2022-07-30T12:43:46.277Z,40.30
2022-07-30T12:46:16.438Z,38.48
2022-07-30T12:49:10.316Z,39.11
2022-07-30T12:51:59.719Z,38.38
2022-07-30T12:54:26.988Z,39.42
2022-07-30T12:57:03.304Z,38.34
2022-07-30T12:59:35.417Z,40.66
2022-07-30T13:02:03.586Z,40.42
2022-07-30T13:04:31.598Z,40.35
2022-07-30T13:07:10.485Z,40.30
2022-07-30T13:09:38.098Z,35.95
2022-07-30T13:12:04.923Z,39.17
2022-07-30T13:14:31.750Z,41.61
2022-07-30T13:16:58.793Z,42.34
2022-07-30T13:19:26.739Z,41.11
2022-07-30T13:21:53.238Z,39.60
2022-07-30T13:24:20.161Z,37.26
2022-07-30T13:26:46.850Z,36.30
2022-07-30T13:29:13.830Z,36.89
2022-07-30T13:31:43.204Z,37.03
2022-07-30T13:34:12.159Z,37.92
2022-07-30T13:36:39.207Z,36.09
2022-07-30T13:39:05.763Z,38.51
2022-07-30T13:41:33.206Z,37.22
2022-07-30T13:43:59.807Z,37.93
2022-07-30T13:46:26.772Z,40.64
2022-07-30T13:48:53.566Z,38.38
2022-07-30T13:51:20.386Z,40.37
2022-07-30T13:53:46.978Z,40.21
2022-07-30T13:56:13.795Z,39.39
2022-07-30T13:58:43.316Z,41.71
2022-07-30T14:01:17.709Z,41.36
2022-07-30T14:03:50.874Z,40.66
2022-07-30T14:06:18.782Z,41.25
2022-07-30T14:08:45.372Z,38.32
2022-07-30T14:11:13.991Z,39.00
2022-07-30T14:13:40.709Z,38.82
2022-07-30T14:16:28.518Z,38.12
2022-07-30T14:18:57.404Z,38.33
2022-07-30T14:21:24.399Z,37.97
2022-07-30T14:23:50.989Z,37.39
2022-07-30T14:26:17.539Z,37.01
2022-07-30T14:28:44.117Z,37.57
2022-07-30T14:31:11.125Z,37.35
2022-07-30T14:33:38.241Z,38.13
2022-07-30T14:36:05.001Z,37.95
2022-07-30T14:38:31.610Z,38.23
2022-07-30T14:40:58.110Z,39.54
2022-07-30T14:43:27.278Z,39.65
2022-07-30T14:45:55.176Z,37.76
2022-07-30T14:48:22.199Z,38.78
2022-07-30T14:51:12.994Z,39.45
2022-07-30T14:53:37.687Z,38.67
2022-07-30T14:56:05.556Z,37.27
2022-07-30T14:58:32.164Z,38.02
2022-07-30T15:01:01.125Z,38.09
2022-07-30T15:03:44.443Z,39.08
2022-07-30T15:06:15.107Z,39.28
2022-07-30T15:08:42.513Z,38.41
2022-07-30T15:11:09.571Z,37.32
2022-07-30T15:13:37.130Z,36.83
2022-07-30T15:16:16.629Z,37.53
2022-07-30T15:18:43.183Z,35.27
2022-07-30T15:21:09.678Z,35.17
2022-07-30T15:23:36.442Z,34.56
2022-07-30T15:26:03.037Z,34.92
2022-07-30T15:28:30.655Z,34.24
2022-07-30T15:30:58.365Z,33.55
2022-07-30T15:33:25.653Z,34.89
2022-07-30T15:35:54.056Z,35.80
2022-07-30T15:38:23.694Z,35.85
2022-07-30T15:40:50.358Z,36.15
2022-07-30T15:43:17.134Z,36.39
2022-07-30T15:45:52.407Z,35.78
2022-07-30T15:48:24.680Z,34.98
2022-07-30T15:51:04.392Z,34.61
2022-07-30T15:53:32.112Z,35.32
2022-07-30T15:55:59.818Z,36.26
2022-07-30T15:58:26.627Z,35.74
2022-07-30T16:00:53.411Z,35.23
2022-07-30T16:03:20.013Z,36.60
2022-07-30T16:05:51.359Z,36.56
2022-07-30T16:08:22.436Z,36.49
2022-07-30T16:10:49.646Z,37.04
2022-07-30T16:13:16.255Z,37.38
2022-07-30T16:15:42.880Z,37.60
2022-07-30T16:18:09.511Z,37.40
2022-07-30T16:20:36.082Z,36.93
2022-07-30T16:23:02.580Z,36.65
2022-07-30T16:25:29.221Z,37.56
2022-07-30T16:27:55.739Z,38.49
2022-07-30T16:30:24.342Z,37.31
2022-07-30T16:32:56.188Z,36.49
2022-07-30T16:35:23.178Z,36.17
2022-07-30T16:37:49.793Z,37.85
2022-07-30T16:40:16.836Z,37.83
2022-07-30T16:42:43.378Z,38.17
2022-07-30T16:45:10.350Z,38.40
2022-07-30T16:47:36.937Z,38.92
2022-07-30T16:50:03.720Z,38.80
2022-07-30T16:52:30.313Z,38.46
2022-07-30T16:54:56.827Z,37.63
2022-07-30T16:57:23.486Z,37.95
2022-07-30T16:59:50.030Z,38.16
2022-07-30T17:02:17.760Z,38.57
2022-07-30T17:04:44.332Z,38.75
2022-07-30T17:07:10.947Z,39.21
2022-07-30T17:09:37.511Z,38.99
2022-07-30T17:12:11.814Z,39.34
2022-07-30T17:14:40.142Z,39.26
2022-07-30T17:17:09.693Z,39.01
2022-07-30T17:19:40.168Z,39.70
2022-07-30T17:22:06.749Z,41.44
2022-07-30T17:24:33.255Z,40.30
2022-07-30T17:26:59.939Z,40.13
2022-07-30T17:29:26.559Z,39.81
2022-07-30T17:31:53.202Z,41.54
2022-07-30T17:34:22.106Z,43.13
2022-07-30T17:36:52.702Z,44.31
2022-07-30T17:40:28.495Z,44.86
2022-07-30T17:42:08.736Z,45.64
2022-07-30T17:44:35.503Z,47.07
2022-07-30T17:47:03.205Z,47.07
2022-07-30T17:49:29.985Z,47.64
2022-07-30T17:51:56.807Z,48.69
2022-07-30T17:54:23.420Z,48.91
2022-07-30T17:56:50.040Z,49.00
2022-07-30T17:59:16.569Z,48.59
2022-07-30T18:01:43.414Z,49.40
2022-07-30T18:04:09.971Z,49.28
2022-07-30T18:06:36.572Z,49.26
2022-07-30T18:09:04.974Z,49.67
2022-07-30T18:11:31.725Z,51.33
2022-07-30T18:13:58.559Z,52.12
2022-07-30T18:16:25.592Z,52.80
2022-07-30T18:18:52.878Z,52.29
2022-07-30T18:21:19.507Z,53.58
2022-07-30T18:23:46.087Z,53.84
2022-07-30T18:26:12.726Z,54.49
2022-07-30T18:28:39.355Z,55.18
2022-07-30T18:31:06.046Z,55.11
2022-07-30T18:33:32.609Z,57.15
2022-07-30T18:35:59.299Z,56.44
2022-07-30T18:38:25.848Z,57.00
2022-07-30T18:40:58.692Z,57.17
2022-07-30T18:43:30.107Z,59.48
2022-07-30T18:45:57.886Z,60.51
2022-07-30T18:48:25.285Z,59.99
2022-07-30T18:50:53.097Z,60.88
2022-07-30T18:53:20.076Z,62.59
2022-07-30T18:55:47.080Z,63.52
2022-07-30T18:58:13.595Z,64.22
2022-07-30T19:00:43.188Z,63.98
2022-07-30T19:03:17.406Z,64.29
2022-07-30T19:05:45.667Z,67.12
2022-07-30T19:08:12.265Z,67.36
2022-07-30T19:10:39.947Z,68.67
2022-07-30T19:13:06.775Z,70.58
2022-07-30T19:15:33.355Z,71.23
2022-07-30T19:17:59.938Z,72.67
2022-07-30T19:20:26.773Z,73.39
2022-07-30T19:23:01.346Z,75.54
2022-07-30T19:25:29.670Z,75.90
2022-07-30T19:27:56.422Z,78.38
2022-07-30T19:30:23.307Z,78.87
2022-07-30T19:32:50.147Z,80.11
2022-07-30T19:35:16.876Z,81.48
2022-07-30T19:37:43.496Z,82.68
2022-07-30T19:40:10.820Z,84.05
2022-07-30T19:42:41.397Z,83.93
2022-07-30T19:45:11.166Z,84.60
2022-07-30T19:47:39.776Z,85.26
2022-07-30T19:50:10.556Z,86.29
2022-07-30T19:52:38.430Z,86.42
2022-07-30T19:55:17.162Z,87.02
2022-07-30T19:57:54.246Z,86.45
2022-07-30T20:00:25.450Z,87.75
2022-07-30T20:02:52.917Z,88.80
2022-07-30T20:05:20.012Z,90.58
2022-07-30T20:07:49.076Z,91.22
2022-07-30T20:10:15.732Z,92.68
2022-07-30T20:12:48.881Z,94.47
2022-07-30T20:15:17.312Z,97.32
2022-07-30T20:17:43.957Z,96.40
2022-07-30T20:20:13.597Z,97.73
2022-07-30T20:22:43.212Z,98.08
2022-07-30T20:25:11.057Z,96.90
2022-07-30T20:27:38.835Z,98.91
2022-07-30T20:30:07.202Z,100.00
2022-07-30T20:32:34.372Z,100.00
2022-07-30T20:35:00.932Z,100.00
2022-07-30T20:37:29.188Z,100.00
2022-07-30T20:39:56.071Z,100.00
2022-07-30T20:42:23.946Z,100.00
2022-07-30T20:45:11.008Z,100.00
2022-07-30T20:47:39.843Z,100.00
2022-07-30T20:50:10.015Z,100.00
2022-07-30T20:52:40.185Z,100.00
2022-07-30T20:55:14.399Z,100.00
2022-07-30T20:57:57.175Z,100.00
2022-07-30T21:00:28.953Z,100.00
2022-07-30T21:02:55.523Z,100.00
2022-07-30T21:05:22.191Z,100.00
2022-07-30T21:07:52.840Z,100.00
2022-07-30T21:10:21.719Z,100.00
2022-07-30T21:12:53.070Z,100.00
2022-07-30T21:15:24.494Z,100.00
2022-07-30T21:17:53.300Z,100.00
2022-07-30T21:20:27.433Z,100.00
2022-07-30T21:22:56.260Z,100.00
2022-07-30T21:25:32.502Z,100.00
2022-07-30T21:28:02.917Z,100.00
2022-07-30T21:30:31.230Z,100.00
2022-07-30T21:32:59.460Z,100.00
2022-07-30T21:35:31.859Z,100.00
2022-07-30T21:37:59.032Z,100.00
2022-07-30T21:40:25.719Z,100.00
2022-07-30T21:42:54.297Z,100.00
2022-07-30T21:45:21.133Z,100.00
2022-07-30T21:47:48.323Z,98.64
2022-07-30T21:50:16.195Z,98.96
2022-07-30T21:52:43.823Z,98.04
2022-07-30T21:55:13.549Z,97.75
2022-07-30T21:57:40.949Z,97.89
2022-07-30T22:00:14.886Z,97.85
2022-07-30T22:02:52.991Z,98.92
2022-07-30T22:05:21.788Z,98.37
2022-07-30T22:07:51.547Z,98.24
2022-07-30T22:10:21.580Z,98.74
2022-07-30T22:12:49.693Z,98.77
2022-07-30T22:15:18.258Z,99.39
2022-07-30T22:17:58.099Z,99.67
2022-07-30T22:20:31.615Z,97.98
2022-07-30T22:23:04.609Z,99.13
2022-07-30T22:25:39.875Z,98.83
2022-07-30T22:28:10.755Z,99.95
2022-07-30T22:30:40.697Z,99.42
2022-07-30T22:33:09.828Z,99.79
2022-07-30T22:35:37.291Z,99.90
2022-07-30T22:38:05.121Z,100.00
2022-07-30T22:40:32.326Z,99.11
2022-07-30T22:42:58.896Z,99.08
2022-07-30T22:45:42.326Z,100.00
2022-07-30T22:48:17.499Z,100.00
2022-07-30T22:50:46.435Z,100.00
2022-07-30T22:54:10.560Z,100.00
2022-07-30T22:56:05.952Z,100.00
2022-07-30T22:58:40.784Z,100.00
2022-07-30T23:01:10.873Z,100.00
2022-07-30T23:03:37.692Z,100.00
2022-07-30T23:06:04.309Z,100.00
2022-07-30T23:08:33.079Z,100.00
2022-07-30T23:11:00.089Z,100.00
2022-07-30T23:13:27.596Z,100.00
2022-07-30T23:15:54.554Z,100.00
2022-07-30T23:18:21.087Z,100.00
2022-07-30T23:20:47.579Z,100.00
2022-07-30T23:23:15.091Z,100.00
2022-07-30T23:25:41.961Z,100.00
2022-07-30T23:28:08.541Z,100.00
2022-07-30T23:30:35.140Z,100.00
2022-07-30T23:33:01.724Z,100.00
2022-07-30T23:35:29.834Z,100.00
2022-07-30T23:37:57.591Z,100.00
2022-07-30T23:40:24.320Z,100.00
2022-07-30T23:42:51.844Z,100.00
2022-07-30T23:45:19.673Z,100.00
2022-07-30T23:48:00.694Z,100.00
2022-07-30T23:50:30.082Z,100.00
2022-07-30T23:52:56.966Z,100.00
2022-07-30T23:55:24.306Z,100.00
2022-07-30T23:57:50.855Z,100.00
